<?xml version="1.0" encoding="utf-8"?>
<gpx xmlns:xsi="http://www.w3.org/2001/XMLSchema-instance" xmlns:xsd="http://www.w3.org/2001/XMLSchema" version="1.1" creator="Shapelink.com" xmlns="http://www.topografix.com/GPX/1/1" xmlns:gpxtpx="http://www.garmin.com/xmlschemas/TrackPointExtension/v1">
  <metadata>
    <name>Gåing 2.43 km, 2012-08-01</name>
    <desc></desc>
    <author><name>Mikael Blom</name></author> 
    <time>2012-08-01T20:04:44Z</time>
  </metadata>
  <trk>
    <name>Gåing 2.43 km, 2012-08-01</name>
    <trkseg>
      <trkpt lat="59.978947" lon="17.7392605">
        <ele>34.7449</ele>
        <time>2012-08-01T20:04:44Z</time>
      </trkpt>
      <trkpt lat="59.9790676" lon="17.7392051">
        <ele>34.7449</ele>
        <time>2012-08-01T20:04:52Z</time>
      </trkpt>
      <trkpt lat="59.9791731" lon="17.739112">
        <ele>35.2255</ele>
        <time>2012-08-01T20:04:59Z</time>
      </trkpt>
      <trkpt lat="59.9792843" lon="17.7390627">
        <ele>37.1481</ele>
        <time>2012-08-01T20:05:06Z</time>
      </trkpt>
      <trkpt lat="59.9793706" lon="17.7390055">
        <ele>36.6675</ele>
        <time>2012-08-01T20:05:12Z</time>
      </trkpt>
      <trkpt lat="59.9794634" lon="17.7389213">
        <ele>38.1094</ele>
        <time>2012-08-01T20:05:18Z</time>
      </trkpt>
      <trkpt lat="59.9795733" lon="17.7388456">
        <ele>37.1481</ele>
        <time>2012-08-01T20:05:26Z</time>
      </trkpt>
      <trkpt lat="59.9796344" lon="17.7388198">
        <ele>37.6287</ele>
        <time>2012-08-01T20:05:30Z</time>
      </trkpt>
      <trkpt lat="59.9797341" lon="17.7387846">
        <ele>36.6675</ele>
        <time>2012-08-01T20:05:37Z</time>
      </trkpt>
      <trkpt lat="59.9797598" lon="17.7388021">
        <ele>37.1481</ele>
        <time>2012-08-01T20:05:39Z</time>
      </trkpt>
      <trkpt lat="59.9798484" lon="17.7387937">
        <ele>37.6287</ele>
        <time>2012-08-01T20:05:45Z</time>
      </trkpt>
      <trkpt lat="59.979953" lon="17.7387897">
        <ele>40.0321</ele>
        <time>2012-08-01T20:05:50Z</time>
      </trkpt>
      <trkpt lat="59.979997" lon="17.7387829">
        <ele>40.0321</ele>
        <time>2012-08-01T20:05:53Z</time>
      </trkpt>
      <trkpt lat="59.9800461" lon="17.738767">
        <ele>41.474</ele>
        <time>2012-08-01T20:05:56Z</time>
      </trkpt>
      <trkpt lat="59.9801601" lon="17.7388224">
        <ele>43.8773</ele>
        <time>2012-08-01T20:06:03Z</time>
      </trkpt>
      <trkpt lat="59.9802998" lon="17.7388255">
        <ele>47.2418</ele>
        <time>2012-08-01T20:06:10Z</time>
      </trkpt>
      <trkpt lat="59.9803171" lon="17.7388222">
        <ele>46.7612</ele>
        <time>2012-08-01T20:06:11Z</time>
      </trkpt>
      <trkpt lat="59.9803787" lon="17.7388144">
        <ele>45.3192</ele>
        <time>2012-08-01T20:06:16Z</time>
      </trkpt>
      <trkpt lat="59.9804526" lon="17.7388214">
        <ele>42.916</ele>
        <time>2012-08-01T20:06:21Z</time>
      </trkpt>
      <trkpt lat="59.980573" lon="17.7387954">
        <ele>41.9547</ele>
        <time>2012-08-01T20:06:28Z</time>
      </trkpt>
      <trkpt lat="59.9805888" lon="17.7387896">
        <ele>41.9547</ele>
        <time>2012-08-01T20:06:29Z</time>
      </trkpt>
      <trkpt lat="59.9806725" lon="17.7387959">
        <ele>40.9934</ele>
        <time>2012-08-01T20:06:35Z</time>
      </trkpt>
      <trkpt lat="59.9806911" lon="17.7387926">
        <ele>41.474</ele>
        <time>2012-08-01T20:06:36Z</time>
      </trkpt>
      <trkpt lat="59.9807755" lon="17.7388045">
        <ele>41.9547</ele>
        <time>2012-08-01T20:06:41Z</time>
      </trkpt>
      <trkpt lat="59.9808889" lon="17.738756">
        <ele>41.9547</ele>
        <time>2012-08-01T20:06:48Z</time>
      </trkpt>
      <trkpt lat="59.9810003" lon="17.7387037">
        <ele>41.474</ele>
        <time>2012-08-01T20:06:54Z</time>
      </trkpt>
      <trkpt lat="59.9810269" lon="17.738698">
        <ele>40.9934</ele>
        <time>2012-08-01T20:06:56Z</time>
      </trkpt>
      <trkpt lat="59.9811136" lon="17.7386558">
        <ele>44.8386</ele>
        <time>2012-08-01T20:07:00Z</time>
      </trkpt>
      <trkpt lat="59.9812569" lon="17.7386046">
        <ele>44.8386</ele>
        <time>2012-08-01T20:07:08Z</time>
      </trkpt>
      <trkpt lat="59.981349" lon="17.7386015">
        <ele>44.8386</ele>
        <time>2012-08-01T20:07:14Z</time>
      </trkpt>
      <trkpt lat="59.981449" lon="17.7385683">
        <ele>45.7999</ele>
        <time>2012-08-01T20:07:20Z</time>
      </trkpt>
      <trkpt lat="59.9815356" lon="17.7385321">
        <ele>43.8773</ele>
        <time>2012-08-01T20:07:26Z</time>
      </trkpt>
      <trkpt lat="59.9816214" lon="17.7384944">
        <ele>44.8386</ele>
        <time>2012-08-01T20:07:32Z</time>
      </trkpt>
      <trkpt lat="59.9816316" lon="17.7384903">
        <ele>44.358</ele>
        <time>2012-08-01T20:07:33Z</time>
      </trkpt>
      <trkpt lat="59.9817433" lon="17.7384093">
        <ele>45.3192</ele>
        <time>2012-08-01T20:07:40Z</time>
      </trkpt>
      <trkpt lat="59.9817613" lon="17.7384007">
        <ele>45.7999</ele>
        <time>2012-08-01T20:07:41Z</time>
      </trkpt>
      <trkpt lat="59.9818525" lon="17.7383383">
        <ele>45.3192</ele>
        <time>2012-08-01T20:07:48Z</time>
      </trkpt>
      <trkpt lat="59.9819493" lon="17.7382637">
        <ele>45.3192</ele>
        <time>2012-08-01T20:07:54Z</time>
      </trkpt>
      <trkpt lat="59.9820274" lon="17.7382353">
        <ele>44.358</ele>
        <time>2012-08-01T20:07:59Z</time>
      </trkpt>
      <trkpt lat="59.9821046" lon="17.7382525">
        <ele>40.9934</ele>
        <time>2012-08-01T20:08:04Z</time>
      </trkpt>
      <trkpt lat="59.9821196" lon="17.7382309">
        <ele>40.5128</ele>
        <time>2012-08-01T20:08:05Z</time>
      </trkpt>
      <trkpt lat="59.982284" lon="17.7381743">
        <ele>42.916</ele>
        <time>2012-08-01T20:08:13Z</time>
      </trkpt>
      <trkpt lat="59.9823944" lon="17.7381017">
        <ele>44.8386</ele>
        <time>2012-08-01T20:08:19Z</time>
      </trkpt>
      <trkpt lat="59.9824934" lon="17.7381042">
        <ele>43.8773</ele>
        <time>2012-08-01T20:08:25Z</time>
      </trkpt>
      <trkpt lat="59.9825948" lon="17.7381167">
        <ele>45.3192</ele>
        <time>2012-08-01T20:08:30Z</time>
      </trkpt>
      <trkpt lat="59.982698" lon="17.7381101">
        <ele>49.1646</ele>
        <time>2012-08-01T20:08:35Z</time>
      </trkpt>
      <trkpt lat="59.9827765" lon="17.7381199">
        <ele>50.126</ele>
        <time>2012-08-01T20:08:40Z</time>
      </trkpt>
      <trkpt lat="59.9828466" lon="17.7381464">
        <ele>45.3192</ele>
        <time>2012-08-01T20:08:46Z</time>
      </trkpt>
      <trkpt lat="59.982879" lon="17.738166">
        <ele>44.8386</ele>
        <time>2012-08-01T20:08:48Z</time>
      </trkpt>
      <trkpt lat="59.9829754" lon="17.7382068">
        <ele>46.7612</ele>
        <time>2012-08-01T20:08:54Z</time>
      </trkpt>
      <trkpt lat="59.9830874" lon="17.7382282">
        <ele>49.1646</ele>
        <time>2012-08-01T20:09:00Z</time>
      </trkpt>
      <trkpt lat="59.9831744" lon="17.738226">
        <ele>48.2034</ele>
        <time>2012-08-01T20:09:06Z</time>
      </trkpt>
      <trkpt lat="59.9832132" lon="17.7382375">
        <ele>49.1646</ele>
        <time>2012-08-01T20:09:08Z</time>
      </trkpt>
      <trkpt lat="59.9833432" lon="17.7382049">
        <ele>53.0098</ele>
        <time>2012-08-01T20:09:14Z</time>
      </trkpt>
      <trkpt lat="59.9833977" lon="17.7381587">
        <ele>49.1646</ele>
        <time>2012-08-01T20:09:19Z</time>
      </trkpt>
      <trkpt lat="59.9834314" lon="17.7381479">
        <ele>46.2806</ele>
        <time>2012-08-01T20:09:23Z</time>
      </trkpt>
      <trkpt lat="59.9834779" lon="17.7381732">
        <ele>45.3192</ele>
        <time>2012-08-01T20:09:27Z</time>
      </trkpt>
      <trkpt lat="59.9835852" lon="17.7381349">
        <ele>44.358</ele>
        <time>2012-08-01T20:09:33Z</time>
      </trkpt>
      <trkpt lat="59.983697" lon="17.7380658">
        <ele>45.3192</ele>
        <time>2012-08-01T20:09:39Z</time>
      </trkpt>
      <trkpt lat="59.9837601" lon="17.7380602">
        <ele>45.3192</ele>
        <time>2012-08-01T20:09:43Z</time>
      </trkpt>
      <trkpt lat="59.9838002" lon="17.7380457">
        <ele>43.3966</ele>
        <time>2012-08-01T20:09:46Z</time>
      </trkpt>
      <trkpt lat="59.9838577" lon="17.738079">
        <ele>41.9547</ele>
        <time>2012-08-01T20:09:51Z</time>
      </trkpt>
      <trkpt lat="59.9838975" lon="17.7380777">
        <ele>42.916</ele>
        <time>2012-08-01T20:09:53Z</time>
      </trkpt>
      <trkpt lat="59.984053" lon="17.738012">
        <ele>40.9934</ele>
        <time>2012-08-01T20:10:01Z</time>
      </trkpt>
      <trkpt lat="59.9841113" lon="17.738052">
        <ele>44.358</ele>
        <time>2012-08-01T20:10:04Z</time>
      </trkpt>
      <trkpt lat="59.9842501" lon="17.7380805">
        <ele>53.0098</ele>
        <time>2012-08-01T20:10:10Z</time>
      </trkpt>
      <trkpt lat="59.9843237" lon="17.738126">
        <ele>48.684</ele>
        <time>2012-08-01T20:10:16Z</time>
      </trkpt>
      <trkpt lat="59.984447" lon="17.7381477">
        <ele>47.2418</ele>
        <time>2012-08-01T20:10:22Z</time>
      </trkpt>
      <trkpt lat="59.9845366" lon="17.7382122">
        <ele>47.2418</ele>
        <time>2012-08-01T20:10:28Z</time>
      </trkpt>
      <trkpt lat="59.9846138" lon="17.7382034">
        <ele>40.5128</ele>
        <time>2012-08-01T20:10:34Z</time>
      </trkpt>
      <trkpt lat="59.9846474" lon="17.7382639">
        <ele>32.3416</ele>
        <time>2012-08-01T20:10:39Z</time>
      </trkpt>
      <trkpt lat="59.984705" lon="17.7383157">
        <ele>26.0929</ele>
        <time>2012-08-01T20:10:44Z</time>
      </trkpt>
      <trkpt lat="59.9847588" lon="17.7383373">
        <ele>16.4797</ele>
        <time>2012-08-01T20:10:51Z</time>
      </trkpt>
      <trkpt lat="59.9848139" lon="17.7383388">
        <ele>7.82788</ele>
        <time>2012-08-01T20:10:58Z</time>
      </trkpt>
      <trkpt lat="59.9848916" lon="17.7383742">
        <ele>0</ele>
        <time>2012-08-01T20:11:06Z</time>
      </trkpt>
      <trkpt lat="59.9849471" lon="17.7384125">
        <ele>0</ele>
        <time>2012-08-01T20:11:12Z</time>
      </trkpt>
      <trkpt lat="59.9850308" lon="17.7384394">
        <ele>0</ele>
        <time>2012-08-01T20:11:19Z</time>
      </trkpt>
      <trkpt lat="59.9851302" lon="17.7384686">
        <ele>0</ele>
        <time>2012-08-01T20:11:25Z</time>
      </trkpt>
      <trkpt lat="59.9852594" lon="17.7385347">
        <ele>0</ele>
        <time>2012-08-01T20:11:33Z</time>
      </trkpt>
      <trkpt lat="59.9852729" lon="17.7385481">
        <ele>0</ele>
        <time>2012-08-01T20:11:34Z</time>
      </trkpt>
      <trkpt lat="59.9854049" lon="17.7386004">
        <ele>0</ele>
        <time>2012-08-01T20:11:42Z</time>
      </trkpt>
      <trkpt lat="59.9854519" lon="17.7385966">
        <ele>0</ele>
        <time>2012-08-01T20:11:45Z</time>
      </trkpt>
      <trkpt lat="59.9855768" lon="17.7386053">
        <ele>0</ele>
        <time>2012-08-01T20:11:51Z</time>
      </trkpt>
      <trkpt lat="59.9856914" lon="17.7386597">
        <ele>1.09863</ele>
        <time>2012-08-01T20:11:56Z</time>
      </trkpt>
      <trkpt lat="59.9857132" lon="17.7386572">
        <ele>1.09863</ele>
        <time>2012-08-01T20:11:57Z</time>
      </trkpt>
      <trkpt lat="59.9858076" lon="17.7386872">
        <ele>6.86646</ele>
        <time>2012-08-01T20:12:02Z</time>
      </trkpt>
      <trkpt lat="59.9858801" lon="17.7386905">
        <ele>11.6732</ele>
        <time>2012-08-01T20:12:05Z</time>
      </trkpt>
      <trkpt lat="59.9860834" lon="17.7387064">
        <ele>30.4188</ele>
        <time>2012-08-01T20:12:11Z</time>
      </trkpt>
      <trkpt lat="59.9861213" lon="17.7386985">
        <ele>34.7449</ele>
        <time>2012-08-01T20:12:12Z</time>
      </trkpt>
      <trkpt lat="59.9863294" lon="17.738732">
        <ele>53.4905</ele>
        <time>2012-08-01T20:12:18Z</time>
      </trkpt>
      <trkpt lat="59.9864348" lon="17.7388332">
        <ele>53.0098</ele>
        <time>2012-08-01T20:12:24Z</time>
      </trkpt>
      <trkpt lat="59.9865325" lon="17.7389117">
        <ele>54.4518</ele>
        <time>2012-08-01T20:12:29Z</time>
      </trkpt>
      <trkpt lat="59.9865985" lon="17.7390264">
        <ele>51.5679</ele>
        <time>2012-08-01T20:12:35Z</time>
      </trkpt>
      <trkpt lat="59.9867001" lon="17.7390994">
        <ele>45.7999</ele>
        <time>2012-08-01T20:12:42Z</time>
      </trkpt>
      <trkpt lat="59.9867864" lon="17.7392353">
        <ele>45.7999</ele>
        <time>2012-08-01T20:12:49Z</time>
      </trkpt>
      <trkpt lat="59.9868346" lon="17.7392486">
        <ele>46.7612</ele>
        <time>2012-08-01T20:12:52Z</time>
      </trkpt>
      <trkpt lat="59.986949" lon="17.7393169">
        <ele>48.684</ele>
        <time>2012-08-01T20:12:59Z</time>
      </trkpt>
      <trkpt lat="59.9870227" lon="17.7393626">
        <ele>51.5679</ele>
        <time>2012-08-01T20:13:04Z</time>
      </trkpt>
      <trkpt lat="59.987102" lon="17.7393373">
        <ele>52.0486</ele>
        <time>2012-08-01T20:13:09Z</time>
      </trkpt>
      <trkpt lat="59.9871528" lon="17.7393313">
        <ele>53.0098</ele>
        <time>2012-08-01T20:13:12Z</time>
      </trkpt>
      <trkpt lat="59.9872683" lon="17.7393632">
        <ele>53.0098</ele>
        <time>2012-08-01T20:13:20Z</time>
      </trkpt>
      <trkpt lat="59.987407" lon="17.7393489">
        <ele>53.4905</ele>
        <time>2012-08-01T20:13:27Z</time>
      </trkpt>
      <trkpt lat="59.987477" lon="17.7393656">
        <ele>53.4905</ele>
        <time>2012-08-01T20:13:31Z</time>
      </trkpt>
      <trkpt lat="59.9875734" lon="17.7393486">
        <ele>53.9712</ele>
        <time>2012-08-01T20:13:36Z</time>
      </trkpt>
      <trkpt lat="59.9877099" lon="17.7393316">
        <ele>54.9324</ele>
        <time>2012-08-01T20:13:43Z</time>
      </trkpt>
      <trkpt lat="59.9877999" lon="17.7392868">
        <ele>53.0098</ele>
        <time>2012-08-01T20:13:49Z</time>
      </trkpt>
      <trkpt lat="59.9878971" lon="17.7393113">
        <ele>52.5292</ele>
        <time>2012-08-01T20:13:55Z</time>
      </trkpt>
      <trkpt lat="59.9879235" lon="17.7393021">
        <ele>51.5679</ele>
        <time>2012-08-01T20:13:57Z</time>
      </trkpt>
      <trkpt lat="59.9880178" lon="17.7393035">
        <ele>51.5679</ele>
        <time>2012-08-01T20:14:03Z</time>
      </trkpt>
      <trkpt lat="59.9881085" lon="17.7392973">
        <ele>53.4905</ele>
        <time>2012-08-01T20:14:07Z</time>
      </trkpt>
      <trkpt lat="59.9882142" lon="17.7392377">
        <ele>50.6066</ele>
        <time>2012-08-01T20:14:14Z</time>
      </trkpt>
      <trkpt lat="59.9883626" lon="17.7391961">
        <ele>55.8938</ele>
        <time>2012-08-01T20:14:21Z</time>
      </trkpt>
      <trkpt lat="59.9884799" lon="17.7391144">
        <ele>56.8551</ele>
        <time>2012-08-01T20:14:27Z</time>
      </trkpt>
      <trkpt lat="59.9885612" lon="17.7390776">
        <ele>55.8938</ele>
        <time>2012-08-01T20:14:32Z</time>
      </trkpt>
      <trkpt lat="59.9886858" lon="17.739047">
        <ele>55.4131</ele>
        <time>2012-08-01T20:14:39Z</time>
      </trkpt>
      <trkpt lat="59.9887974" lon="17.7390487">
        <ele>56.3745</ele>
        <time>2012-08-01T20:14:45Z</time>
      </trkpt>
      <trkpt lat="59.9888969" lon="17.7390161">
        <ele>58.2971</ele>
        <time>2012-08-01T20:14:50Z</time>
      </trkpt>
      <trkpt lat="59.9890107" lon="17.7389067">
        <ele>60.7003</ele>
        <time>2012-08-01T20:14:56Z</time>
      </trkpt>
      <trkpt lat="59.9891026" lon="17.7388436">
        <ele>62.6229</ele>
        <time>2012-08-01T20:15:01Z</time>
      </trkpt>
      <trkpt lat="59.98916" lon="17.7387451">
        <ele>60.7003</ele>
        <time>2012-08-01T20:15:07Z</time>
      </trkpt>
      <trkpt lat="59.9892859" lon="17.738632">
        <ele>59.2584</ele>
        <time>2012-08-01T20:15:15Z</time>
      </trkpt>
      <trkpt lat="59.9892973" lon="17.7386239">
        <ele>58.7777</ele>
        <time>2012-08-01T20:15:16Z</time>
      </trkpt>
      <trkpt lat="59.9893819" lon="17.7384995">
        <ele>57.3358</ele>
        <time>2012-08-01T20:15:23Z</time>
      </trkpt>
      <trkpt lat="59.9894459" lon="17.7385197">
        <ele>52.5292</ele>
        <time>2012-08-01T20:15:28Z</time>
      </trkpt>
      <trkpt lat="59.9894727" lon="17.7385384">
        <ele>50.6066</ele>
        <time>2012-08-01T20:15:30Z</time>
      </trkpt>
      <trkpt lat="59.9895828" lon="17.7384893">
        <ele>53.0098</ele>
        <time>2012-08-01T20:15:37Z</time>
      </trkpt>
      <trkpt lat="59.9896033" lon="17.7384808">
        <ele>54.9324</ele>
        <time>2012-08-01T20:15:38Z</time>
      </trkpt>
      <trkpt lat="59.9896846" lon="17.7383935">
        <ele>56.3745</ele>
        <time>2012-08-01T20:15:44Z</time>
      </trkpt>
      <trkpt lat="59.9898075" lon="17.7383427">
        <ele>57.8165</ele>
        <time>2012-08-01T20:15:50Z</time>
      </trkpt>
      <trkpt lat="59.9899065" lon="17.7382635">
        <ele>55.8938</ele>
        <time>2012-08-01T20:15:56Z</time>
      </trkpt>
      <trkpt lat="59.9899706" lon="17.7382525">
        <ele>57.8165</ele>
        <time>2012-08-01T20:16:00Z</time>
      </trkpt>
      <trkpt lat="59.9900918" lon="17.7381385">
        <ele>63.1036</ele>
        <time>2012-08-01T20:16:05Z</time>
      </trkpt>
      <trkpt lat="59.9902152" lon="17.7381364">
        <ele>69.3523</ele>
        <time>2012-08-01T20:16:10Z</time>
      </trkpt>
      <trkpt lat="59.9902504" lon="17.7381318">
        <ele>67.9103</ele>
        <time>2012-08-01T20:16:13Z</time>
      </trkpt>
      <trkpt lat="59.9903752" lon="17.7381349">
        <ele>67.4297</ele>
        <time>2012-08-01T20:16:20Z</time>
      </trkpt>
      <trkpt lat="59.9903891" lon="17.7381255">
        <ele>65.5071</ele>
        <time>2012-08-01T20:16:22Z</time>
      </trkpt>
      <trkpt lat="59.9904433" lon="17.7380596">
        <ele>65.5071</ele>
        <time>2012-08-01T20:16:26Z</time>
      </trkpt>
      <trkpt lat="59.9905136" lon="17.7381168">
        <ele>57.3358</ele>
        <time>2012-08-01T20:16:32Z</time>
      </trkpt>
      <trkpt lat="59.9906058" lon="17.7380639">
        <ele>50.6066</ele>
        <time>2012-08-01T20:16:38Z</time>
      </trkpt>
      <trkpt lat="59.9906714" lon="17.7380335">
        <ele>48.2034</ele>
        <time>2012-08-01T20:16:42Z</time>
      </trkpt>
      <trkpt lat="59.9907731" lon="17.7380117">
        <ele>51.5679</ele>
        <time>2012-08-01T20:16:46Z</time>
      </trkpt>
      <trkpt lat="59.990798" lon="17.7379845">
        <ele>52.5292</ele>
        <time>2012-08-01T20:16:48Z</time>
      </trkpt>
      <trkpt lat="59.9908535" lon="17.7378527">
        <ele>54.4518</ele>
        <time>2012-08-01T20:16:53Z</time>
      </trkpt>
      <trkpt lat="59.9909083" lon="17.7378025">
        <ele>53.4905</ele>
        <time>2012-08-01T20:16:58Z</time>
      </trkpt>
      <trkpt lat="59.9910088" lon="17.7377167">
        <ele>56.8551</ele>
        <time>2012-08-01T20:17:04Z</time>
      </trkpt>
      <trkpt lat="59.9910953" lon="17.737722">
        <ele>58.7777</ele>
        <time>2012-08-01T20:17:09Z</time>
      </trkpt>
      <trkpt lat="59.9911336" lon="17.7377024">
        <ele>60.2197</ele>
        <time>2012-08-01T20:17:11Z</time>
      </trkpt>
      <trkpt lat="59.9912243" lon="17.7376796">
        <ele>59.7391</ele>
        <time>2012-08-01T20:17:18Z</time>
      </trkpt>
      <trkpt lat="59.991386" lon="17.7376805">
        <ele>62.1423</ele>
        <time>2012-08-01T20:17:26Z</time>
      </trkpt>
      <trkpt lat="59.9914845" lon="17.7376458">
        <ele>65.9877</ele>
        <time>2012-08-01T20:17:31Z</time>
      </trkpt>
      <trkpt lat="59.9915707" lon="17.7376323">
        <ele>62.1423</ele>
        <time>2012-08-01T20:17:38Z</time>
      </trkpt>
      <trkpt lat="59.9916461" lon="17.7376345">
        <ele>60.7003</ele>
        <time>2012-08-01T20:17:43Z</time>
      </trkpt>
      <trkpt lat="59.9917559" lon="17.7376602">
        <ele>59.7391</ele>
        <time>2012-08-01T20:17:50Z</time>
      </trkpt>
      <trkpt lat="59.9917994" lon="17.737646">
        <ele>58.7777</ele>
        <time>2012-08-01T20:17:53Z</time>
      </trkpt>
      <trkpt lat="59.9919097" lon="17.7375748">
        <ele>61.6617</ele>
        <time>2012-08-01T20:18:00Z</time>
      </trkpt>
      <trkpt lat="59.9919397" lon="17.7375709">
        <ele>61.6617</ele>
        <time>2012-08-01T20:18:02Z</time>
      </trkpt>
      <trkpt lat="59.9919728" lon="17.7375815">
        <ele>61.181</ele>
        <time>2012-08-01T20:18:05Z</time>
      </trkpt>
      <trkpt lat="59.9920748" lon="17.7374929">
        <ele>61.181</ele>
        <time>2012-08-01T20:18:11Z</time>
      </trkpt>
      <trkpt lat="59.9921741" lon="17.7374889">
        <ele>54.4518</ele>
        <time>2012-08-01T20:18:18Z</time>
      </trkpt>
      <trkpt lat="59.9922531" lon="17.7375107">
        <ele>52.5292</ele>
        <time>2012-08-01T20:18:23Z</time>
      </trkpt>
      <trkpt lat="59.9923389" lon="17.7374531">
        <ele>53.0098</ele>
        <time>2012-08-01T20:18:28Z</time>
      </trkpt>
      <trkpt lat="59.9924366" lon="17.7373201">
        <ele>57.8165</ele>
        <time>2012-08-01T20:18:33Z</time>
      </trkpt>
      <trkpt lat="59.9924998" lon="17.7372883">
        <ele>60.2197</ele>
        <time>2012-08-01T20:18:38Z</time>
      </trkpt>
      <trkpt lat="59.9925717" lon="17.737193">
        <ele>60.2197</ele>
        <time>2012-08-01T20:18:45Z</time>
      </trkpt>
      <trkpt lat="59.9925875" lon="17.7371751">
        <ele>60.7003</ele>
        <time>2012-08-01T20:18:46Z</time>
      </trkpt>
      <trkpt lat="59.9926225" lon="17.737098">
        <ele>56.8551</ele>
        <time>2012-08-01T20:18:50Z</time>
      </trkpt>
      <trkpt lat="59.9926762" lon="17.7370108">
        <ele>54.9324</ele>
        <time>2012-08-01T20:18:55Z</time>
      </trkpt>
      <trkpt lat="59.9927253" lon="17.7369141">
        <ele>54.4518</ele>
        <time>2012-08-01T20:19:00Z</time>
      </trkpt>
      <trkpt lat="59.9927856" lon="17.7367791">
        <ele>54.9324</ele>
        <time>2012-08-01T20:19:05Z</time>
      </trkpt>
      <trkpt lat="59.9927963" lon="17.7367402">
        <ele>55.8938</ele>
        <time>2012-08-01T20:19:06Z</time>
      </trkpt>
      <trkpt lat="59.9928724" lon="17.7365739">
        <ele>58.7777</ele>
        <time>2012-08-01T20:19:12Z</time>
      </trkpt>
      <trkpt lat="59.9928849" lon="17.7364334">
        <ele>59.2584</ele>
        <time>2012-08-01T20:19:15Z</time>
      </trkpt>
      <trkpt lat="59.9929325" lon="17.7363142">
        <ele>60.7003</ele>
        <time>2012-08-01T20:19:19Z</time>
      </trkpt>
      <trkpt lat="59.9930364" lon="17.7361497">
        <ele>67.9103</ele>
        <time>2012-08-01T20:19:25Z</time>
      </trkpt>
      <trkpt lat="59.9930433" lon="17.7361307">
        <ele>67.4297</ele>
        <time>2012-08-01T20:19:26Z</time>
      </trkpt>
      <trkpt lat="59.9930793" lon="17.7359977">
        <ele>63.5844</ele>
        <time>2012-08-01T20:19:32Z</time>
      </trkpt>
      <trkpt lat="59.9931065" lon="17.7359815">
        <ele>64.0651</ele>
        <time>2012-08-01T20:19:34Z</time>
      </trkpt>
      <trkpt lat="59.9931632" lon="17.7359504">
        <ele>65.0264</ele>
        <time>2012-08-01T20:19:38Z</time>
      </trkpt>
      <trkpt lat="59.9932259" lon="17.7358862">
        <ele>62.6229</ele>
        <time>2012-08-01T20:19:44Z</time>
      </trkpt>
      <trkpt lat="59.9932511" lon="17.7358593">
        <ele>63.5844</ele>
        <time>2012-08-01T20:19:46Z</time>
      </trkpt>
      <trkpt lat="59.993302" lon="17.7357651">
        <ele>56.3745</ele>
        <time>2012-08-01T20:19:52Z</time>
      </trkpt>
      <trkpt lat="59.9933114" lon="17.7357483">
        <ele>55.8938</ele>
        <time>2012-08-01T20:19:53Z</time>
      </trkpt>
      <trkpt lat="59.9933443" lon="17.7356957">
        <ele>56.3745</ele>
        <time>2012-08-01T20:19:56Z</time>
      </trkpt>
      <trkpt lat="59.9934031" lon="17.7356117">
        <ele>54.4518</ele>
        <time>2012-08-01T20:20:01Z</time>
      </trkpt>
      <trkpt lat="59.9935362" lon="17.735536">
        <ele>54.9324</ele>
        <time>2012-08-01T20:20:09Z</time>
      </trkpt>
      <trkpt lat="59.9935859" lon="17.7355567">
        <ele>53.9712</ele>
        <time>2012-08-01T20:20:12Z</time>
      </trkpt>
      <trkpt lat="59.9936531" lon="17.7355106">
        <ele>52.5292</ele>
        <time>2012-08-01T20:20:17Z</time>
      </trkpt>
      <trkpt lat="59.9936874" lon="17.7355293">
        <ele>51.5679</ele>
        <time>2012-08-01T20:20:19Z</time>
      </trkpt>
      <trkpt lat="59.993752" lon="17.7355832">
        <ele>49.6453</ele>
        <time>2012-08-01T20:20:23Z</time>
      </trkpt>
      <trkpt lat="59.9938081" lon="17.7356152">
        <ele>45.7999</ele>
        <time>2012-08-01T20:20:27Z</time>
      </trkpt>
      <trkpt lat="59.9939179" lon="17.7357059">
        <ele>44.358</ele>
        <time>2012-08-01T20:20:34Z</time>
      </trkpt>
      <trkpt lat="59.9939308" lon="17.7357193">
        <ele>43.8773</ele>
        <time>2012-08-01T20:20:35Z</time>
      </trkpt>
      <trkpt lat="59.994021" lon="17.7357271">
        <ele>49.1646</ele>
        <time>2012-08-01T20:20:39Z</time>
      </trkpt>
      <trkpt lat="59.9941418" lon="17.7357291">
        <ele>55.8938</ele>
        <time>2012-08-01T20:20:45Z</time>
      </trkpt>
      <trkpt lat="59.9942322" lon="17.7357541">
        <ele>53.4905</ele>
        <time>2012-08-01T20:20:52Z</time>
      </trkpt>
      <trkpt lat="59.9943073" lon="17.7357534">
        <ele>49.1646</ele>
        <time>2012-08-01T20:20:58Z</time>
      </trkpt>
      <trkpt lat="59.9944721" lon="17.7358042">
        <ele>58.2971</ele>
        <time>2012-08-01T20:21:05Z</time>
      </trkpt>
      <trkpt lat="59.9945761" lon="17.735835">
        <ele>64.5457</ele>
        <time>2012-08-01T20:21:10Z</time>
      </trkpt>
      <trkpt lat="59.9945815" lon="17.7358705">
        <ele>59.7391</ele>
        <time>2012-08-01T20:21:12Z</time>
      </trkpt>
      <trkpt lat="59.9946298" lon="17.7358948">
        <ele>51.5679</ele>
        <time>2012-08-01T20:21:18Z</time>
      </trkpt>
      <trkpt lat="59.9946913" lon="17.7359207">
        <ele>47.2418</ele>
        <time>2012-08-01T20:21:24Z</time>
      </trkpt>
      <trkpt lat="59.9947669" lon="17.7360718">
        <ele>41.9547</ele>
        <time>2012-08-01T20:21:32Z</time>
      </trkpt>
      <trkpt lat="59.9948919" lon="17.7361001">
        <ele>46.2806</ele>
        <time>2012-08-01T20:21:40Z</time>
      </trkpt>
      <trkpt lat="59.9949818" lon="17.7361183">
        <ele>48.2034</ele>
        <time>2012-08-01T20:21:46Z</time>
      </trkpt>
      <trkpt lat="59.9950406" lon="17.736086">
        <ele>49.1646</ele>
        <time>2012-08-01T20:21:50Z</time>
      </trkpt>
      <trkpt lat="59.9951176" lon="17.7360846">
        <ele>51.0872</ele>
        <time>2012-08-01T20:21:55Z</time>
      </trkpt>
      <trkpt lat="59.9952226" lon="17.7360893">
        <ele>52.0486</ele>
        <time>2012-08-01T20:22:01Z</time>
      </trkpt>
      <trkpt lat="59.9952413" lon="17.7361023">
        <ele>52.5292</ele>
        <time>2012-08-01T20:22:02Z</time>
      </trkpt>
      <trkpt lat="59.9952866" lon="17.7360867">
        <ele>53.0098</ele>
        <time>2012-08-01T20:22:05Z</time>
      </trkpt>
      <trkpt lat="59.9954342" lon="17.7361528">
        <ele>53.4905</ele>
        <time>2012-08-01T20:22:12Z</time>
      </trkpt>
      <trkpt lat="59.9955035" lon="17.7361282">
        <ele>49.6453</ele>
        <time>2012-08-01T20:22:18Z</time>
      </trkpt>
      <trkpt lat="59.995533" lon="17.7361039">
        <ele>47.2418</ele>
        <time>2012-08-01T20:22:21Z</time>
      </trkpt>
      <trkpt lat="59.9956513" lon="17.7361108">
        <ele>50.126</ele>
        <time>2012-08-01T20:22:28Z</time>
      </trkpt>
      <trkpt lat="59.9957243" lon="17.7361248">
        <ele>47.7225</ele>
        <time>2012-08-01T20:22:34Z</time>
      </trkpt>
      <trkpt lat="59.9957475" lon="17.7361435">
        <ele>45.3192</ele>
        <time>2012-08-01T20:22:36Z</time>
      </trkpt>
      <trkpt lat="59.9958242" lon="17.7361401">
        <ele>39.5513</ele>
        <time>2012-08-01T20:22:43Z</time>
      </trkpt>
      <trkpt lat="59.9959243" lon="17.7361345">
        <ele>42.4354</ele>
        <time>2012-08-01T20:22:48Z</time>
      </trkpt>
      <trkpt lat="59.9959999" lon="17.7361639">
        <ele>42.916</ele>
        <time>2012-08-01T20:22:53Z</time>
      </trkpt>
      <trkpt lat="59.9960317" lon="17.7361425">
        <ele>42.916</ele>
        <time>2012-08-01T20:22:55Z</time>
      </trkpt>
      <trkpt lat="59.9961091" lon="17.7361157">
        <ele>42.4354</ele>
        <time>2012-08-01T20:23:00Z</time>
      </trkpt>
      <trkpt lat="59.9962025" lon="17.7361559">
        <ele>44.358</ele>
        <time>2012-08-01T20:23:06Z</time>
      </trkpt>
      <trkpt lat="59.9962381" lon="17.7361787">
        <ele>45.7999</ele>
        <time>2012-08-01T20:23:08Z</time>
      </trkpt>
      <trkpt lat="59.9963047" lon="17.7361762">
        <ele>48.2034</ele>
        <time>2012-08-01T20:23:12Z</time>
      </trkpt>
      <trkpt lat="59.9963676" lon="17.736211">
        <ele>47.7225</ele>
        <time>2012-08-01T20:23:17Z</time>
      </trkpt>
      <trkpt lat="59.996498" lon="17.7363082">
        <ele>49.1646</ele>
        <time>2012-08-01T20:23:24Z</time>
      </trkpt>
      <trkpt lat="59.9965852" lon="17.7363695">
        <ele>52.5292</ele>
        <time>2012-08-01T20:23:29Z</time>
      </trkpt>
      <trkpt lat="59.9966116" lon="17.7363826">
        <ele>53.9712</ele>
        <time>2012-08-01T20:23:31Z</time>
      </trkpt>
      <trkpt lat="59.9967044" lon="17.7364447">
        <ele>58.7777</ele>
        <time>2012-08-01T20:23:37Z</time>
      </trkpt>
      <trkpt lat="59.9967516" lon="17.7364641">
        <ele>55.4131</ele>
        <time>2012-08-01T20:23:42Z</time>
      </trkpt>
      <trkpt lat="59.9968396" lon="17.7365103">
        <ele>51.5679</ele>
        <time>2012-08-01T20:23:48Z</time>
      </trkpt>
      <trkpt lat="59.9969458" lon="17.7365482">
        <ele>54.4518</ele>
        <time>2012-08-01T20:23:54Z</time>
      </trkpt>
      <trkpt lat="59.9971664" lon="17.7365812">
        <ele>71.7555</ele>
        <time>2012-08-01T20:24:01Z</time>
      </trkpt>
      <trkpt lat="59.9972466" lon="17.7366491">
        <ele>70.3135</ele>
        <time>2012-08-01T20:24:07Z</time>
      </trkpt>
      <trkpt lat="59.9972835" lon="17.736699">
        <ele>66.4683</ele>
        <time>2012-08-01T20:24:11Z</time>
      </trkpt>
      <trkpt lat="59.9972928" lon="17.7367185">
        <ele>53.9712</ele>
        <time>2012-08-01T20:24:17Z</time>
      </trkpt>
      <trkpt lat="59.9973331" lon="17.736727">
        <ele>51.0872</ele>
        <time>2012-08-01T20:24:21Z</time>
      </trkpt>
      <trkpt lat="59.9974119" lon="17.7366829">
        <ele>51.0872</ele>
        <time>2012-08-01T20:24:26Z</time>
      </trkpt>
      <trkpt lat="59.9974913" lon="17.7366316">
        <ele>53.9712</ele>
        <time>2012-08-01T20:24:31Z</time>
      </trkpt>
      <trkpt lat="59.997593" lon="17.7366413">
        <ele>56.8551</ele>
        <time>2012-08-01T20:24:36Z</time>
      </trkpt>
      <trkpt lat="59.9976822" lon="17.7366493">
        <ele>53.4905</ele>
        <time>2012-08-01T20:24:43Z</time>
      </trkpt>
      <trkpt lat="59.9976977" lon="17.7366834">
        <ele>50.126</ele>
        <time>2012-08-01T20:24:45Z</time>
      </trkpt>
      <trkpt lat="59.9977253" lon="17.7366907">
        <ele>50.126</ele>
        <time>2012-08-01T20:24:47Z</time>
      </trkpt>
      <trkpt lat="59.997809" lon="17.7366917">
        <ele>50.126</ele>
        <time>2012-08-01T20:24:53Z</time>
      </trkpt>
      <trkpt lat="59.9978233" lon="17.7366851">
        <ele>49.1646</ele>
        <time>2012-08-01T20:24:54Z</time>
      </trkpt>
      <trkpt lat="59.9979345" lon="17.736643">
        <ele>49.1646</ele>
        <time>2012-08-01T20:25:01Z</time>
      </trkpt>
      <trkpt lat="59.9980439" lon="17.7366232">
        <ele>48.2034</ele>
        <time>2012-08-01T20:25:08Z</time>
      </trkpt>
      <trkpt lat="59.9981325" lon="17.7366317">
        <ele>50.6066</ele>
        <time>2012-08-01T20:25:13Z</time>
      </trkpt>
      <trkpt lat="59.9982133" lon="17.7366539">
        <ele>49.6453</ele>
        <time>2012-08-01T20:25:18Z</time>
      </trkpt>
      <trkpt lat="59.9982412" lon="17.7366701">
        <ele>48.2034</ele>
        <time>2012-08-01T20:25:20Z</time>
      </trkpt>
      <trkpt lat="59.9983696" lon="17.7367171">
        <ele>49.1646</ele>
        <time>2012-08-01T20:25:27Z</time>
      </trkpt>
      <trkpt lat="59.9985194" lon="17.7367281">
        <ele>53.4905</ele>
        <time>2012-08-01T20:25:35Z</time>
      </trkpt>
      <trkpt lat="59.9986277" lon="17.7367321">
        <ele>62.6229</ele>
        <time>2012-08-01T20:25:39Z</time>
      </trkpt>
      <trkpt lat="59.9987012" lon="17.7367494">
        <ele>65.0264</ele>
        <time>2012-08-01T20:25:43Z</time>
      </trkpt>
      <trkpt lat="59.9988218" lon="17.7368088">
        <ele>65.0264</ele>
        <time>2012-08-01T20:25:50Z</time>
      </trkpt>
      <trkpt lat="59.9989229" lon="17.7368471">
        <ele>63.5844</ele>
        <time>2012-08-01T20:25:56Z</time>
      </trkpt>
      <trkpt lat="59.9989908" lon="17.7368759">
        <ele>61.181</ele>
        <time>2012-08-01T20:26:01Z</time>
      </trkpt>
      <trkpt lat="59.9990665" lon="17.7368704">
        <ele>58.7777</ele>
        <time>2012-08-01T20:26:06Z</time>
      </trkpt>
      <trkpt lat="59.9991867" lon="17.7368979">
        <ele>61.181</ele>
        <time>2012-08-01T20:26:12Z</time>
      </trkpt>
      <trkpt lat="59.9993133" lon="17.7369135">
        <ele>60.2197</ele>
        <time>2012-08-01T20:26:20Z</time>
      </trkpt>
      <trkpt lat="59.9993767" lon="17.7369466">
        <ele>58.7777</ele>
        <time>2012-08-01T20:26:24Z</time>
      </trkpt>
      <trkpt lat="59.9994803" lon="17.7369452">
        <ele>56.3745</ele>
        <time>2012-08-01T20:26:31Z</time>
      </trkpt>
      <trkpt lat="59.9995985" lon="17.7369456">
        <ele>53.4905</ele>
        <time>2012-08-01T20:26:39Z</time>
      </trkpt>
      <trkpt lat="59.9996941" lon="17.7369709">
        <ele>52.5292</ele>
        <time>2012-08-01T20:26:45Z</time>
      </trkpt>
      <trkpt lat="59.9998029" lon="17.7369731">
        <ele>53.4905</ele>
        <time>2012-08-01T20:26:51Z</time>
      </trkpt>
      <trkpt lat="59.999888" lon="17.7369714">
        <ele>53.4905</ele>
        <time>2012-08-01T20:26:56Z</time>
      </trkpt>
    </trkseg>
  </trk>
</gpx>